Ana Sayfa
METAR-TAF:

METAR-TAF

Havaalanları :

Fitchburg, Massachusetts, Amerika Birleşik Devletleri

Enlem: 42-33-07N, Boylam: 071-45-21W, yükseklik: 106 m

Güncel hava durumu gözlemi

Rapor saat 23:52 UTC de 46 dakika önce yapıldı.
Rüzgar batıdan 16 kt ve 30 kt'a kadar ani rüzgarlar, batı/güneybatı ve kuzeybatı arasında değişken
Sıcaklık 0°C
Nem 55%
Basınç 1000 hPa
Görüş mesafesi: 12.9 km
3700 ft yükseklikte parçalı çok bulutlu
4500 ft yükseklikte parçalı çok bulutlu
5000 ft yükseklikte çok bulutlu
hafif kar

METAR: KFIT 272352Z AUTO 27016G30KT 240V310 8SM -SN BKN037 BKN045 OVC050 00/M08 A2952 RMK AO2 PK WND 29032/2326 SNB41 SLP001 P0000 60000 T00001083 10056 20000 53044

Saat: 19:38 (00:38 UTC)


TAF: eksik

4.000'den fazla havaalanı için hava durumu gözlemleri ve tahminleri (METAR ve TAF raporları).

Kullanılabilir istasyonlar harita üzerinde sarı ve kırmızı noktalarla gösterilir.

İstasyonun adını görmek için fareyi noktanın üzerinde gezdirin.

Sonrasında hava gözlem ve tahminlerini görmek için tıklayın.

Haritayı değiştirmek için: yaklaştırmak için siyah artı işaretli yeşil düğmeye ve uzaklaştırmak için de eksi işaretli düğmeye hızla tıklayın; bitişik haritalar için yeşil okları kullanın.


METAR-TAF: